createdAt,value
2023-04-15T00:01:11.984Z,88.88
2023-04-15T00:03:39.866Z,87.17
2023-04-15T00:06:07.714Z,87.45
2023-04-15T00:08:34.926Z,87.05
2023-04-15T00:11:05.658Z,86.38
2023-04-15T00:13:35.942Z,86.03
2023-04-15T00:16:03.401Z,86.50
2023-04-15T00:18:31.630Z,86.51
2023-04-15T00:20:59.378Z,86.45
2023-04-15T00:23:26.928Z,85.74
2023-04-15T00:25:54.356Z,85.50
2023-04-15T00:28:21.714Z,85.75
2023-04-15T00:30:49.237Z,85.77
2023-04-15T00:33:19.195Z,86.35
2023-04-15T00:35:47.192Z,87.57
2023-04-15T00:38:14.704Z,86.56
2023-04-15T00:40:42.598Z,86.55
2023-04-15T00:43:09.886Z,85.63
2023-04-15T00:45:37.428Z,85.32
2023-04-15T00:48:04.688Z,85.26
2023-04-15T00:50:31.850Z,85.38
2023-04-15T00:52:59.308Z,84.63
2023-04-15T00:55:26.774Z,83.50
2023-04-15T00:57:53.971Z,84.22
2023-04-15T01:00:21.471Z,85.13
2023-04-15T01:02:48.973Z,84.01
2023-04-15T01:05:17.613Z,83.26
2023-04-15T01:07:45.335Z,84.12
2023-04-15T01:10:13.152Z,83.67
2023-04-15T01:12:40.432Z,83.84
2023-04-15T01:15:08.372Z,82.94
2023-04-15T01:17:35.537Z,82.55
2023-04-15T01:20:02.802Z,82.46
2023-04-15T01:22:31.533Z,83.00
2023-04-15T01:25:08.282Z,82.47
2023-04-15T01:27:36.401Z,82.98
2023-04-15T01:30:05.401Z,81.62
2023-04-15T01:32:32.811Z,81.83
2023-04-15T01:35:19.205Z,82.53
2023-04-15T01:37:48.419Z,82.21
2023-04-15T01:40:17.443Z,81.30
2023-04-15T01:42:46.563Z,80.27
2023-04-15T01:45:17.527Z,80.14
2023-04-15T01:47:46.284Z,79.67
2023-04-15T01:50:15.330Z,79.43
2023-04-15T01:52:43.781Z,80.22
2023-04-15T01:55:12.661Z,79.48
2023-04-15T01:57:41.237Z,81.04
2023-04-15T02:00:09.953Z,81.29
2023-04-15T02:02:42.055Z,81.52
2023-04-15T02:05:11.008Z,82.29
2023-04-15T02:07:39.454Z,81.00
2023-04-15T02:10:08.058Z,80.24
2023-04-15T02:12:37.176Z,81.34
2023-04-15T02:15:05.929Z,81.20
2023-04-15T02:17:35.212Z,80.97
2023-04-15T02:20:06.058Z,81.30
2023-04-15T02:22:34.916Z,80.40
2023-04-15T02:25:03.463Z,79.41
2023-04-15T02:27:33.548Z,81.81
2023-04-15T02:30:02.420Z,82.22
2023-04-15T02:32:30.928Z,83.31
2023-04-15T02:35:02.577Z,84.66
2023-04-15T02:37:32.049Z,81.85
2023-04-15T02:40:01.449Z,82.27
2023-04-15T02:42:31.925Z,80.22
2023-04-15T02:45:01.936Z,80.65
2023-04-15T02:47:31.477Z,82.06
2023-04-15T02:50:01.727Z,83.06
2023-04-15T02:52:31.194Z,83.44
2023-04-15T02:55:02.526Z,83.51
2023-04-15T02:57:31.743Z,86.00
2023-04-15T03:00:00.805Z,86.01
2023-04-15T03:02:33.881Z,86.59
2023-04-15T03:05:02.913Z,85.49
2023-04-15T03:07:32.029Z,84.05
2023-04-15T03:10:01.221Z,85.61
2023-04-15T03:12:30.457Z,85.21
2023-04-15T03:15:00.405Z,86.21
2023-04-15T03:17:29.633Z,86.54
2023-04-15T03:19:58.929Z,87.04
2023-04-15T03:22:27.556Z,86.31
2023-04-15T03:24:56.205Z,85.43
2023-04-15T03:27:25.184Z,86.36
2023-04-15T03:29:54.651Z,85.84
2023-04-15T03:32:24.927Z,84.00
2023-04-15T03:34:53.643Z,83.22
2023-04-15T03:37:22.162Z,84.47
2023-04-15T03:39:50.608Z,83.22
2023-04-15T03:42:19.324Z,84.52
2023-04-15T03:44:47.772Z,86.34
2023-04-15T03:47:16.449Z,86.84
2023-04-15T03:49:45.469Z,86.60
2023-04-15T03:52:13.905Z,86.22
2023-04-15T03:54:42.332Z,87.55
2023-04-15T03:57:11.183Z,87.57
2023-04-15T03:59:39.628Z,86.36
2023-04-15T04:02:08.216Z,86.56
2023-04-15T04:04:37.304Z,86.31
2023-04-15T04:07:05.927Z,84.46
2023-04-15T04:09:34.418Z,84.74
2023-04-15T04:12:04.245Z,84.79
2023-04-15T04:14:32.732Z,83.08
2023-04-15T04:17:01.540Z,84.75
2023-04-15T04:19:30.265Z,85.60
2023-04-15T04:21:58.773Z,86.90
2023-04-15T04:24:27.171Z,85.41
2023-04-15T04:26:57.349Z,84.89
2023-04-15T04:29:26.181Z,83.48
2023-04-15T04:31:54.662Z,83.18
2023-04-15T04:34:23.516Z,82.63
2023-04-15T04:36:52.002Z,82.02
2023-04-15T04:39:20.470Z,83.91
2023-04-15T04:41:49.768Z,84.15
2023-04-15T04:44:18.403Z,83.56
2023-04-15T04:46:46.831Z,84.22
2023-04-15T04:49:15.585Z,83.67
2023-04-15T04:51:44.095Z,83.72
2023-04-15T04:54:12.938Z,84.42
2023-04-15T04:56:41.685Z,83.21
2023-04-15T04:59:10.189Z,84.76
2023-04-15T05:01:38.693Z,84.12
2023-04-15T05:04:07.931Z,84.50
2023-04-15T05:06:37.001Z,83.94
2023-04-15T05:09:05.759Z,83.88
2023-04-15T05:11:34.760Z,83.53
2023-04-15T05:14:03.226Z,82.97
2023-04-15T05:16:31.631Z,82.88
2023-04-15T05:19:00.616Z,84.14
2023-04-15T05:21:29.216Z,84.50
2023-04-15T05:23:57.643Z,84.88
2023-04-15T05:26:27.614Z,83.54
2023-04-15T05:28:56.058Z,83.22
2023-04-15T05:31:24.514Z,82.15
2023-04-15T05:33:53.263Z,80.47
2023-04-15T05:36:21.784Z,80.34
2023-04-15T05:38:50.231Z,82.03
2023-04-15T05:41:19.875Z,81.00
2023-04-15T05:43:48.861Z,80.99
2023-04-15T05:46:17.354Z,81.79
2023-04-15T05:48:46.107Z,82.97
2023-04-15T05:51:14.623Z,83.74
2023-04-15T05:53:43.373Z,83.00
2023-04-15T05:56:12.163Z,83.25
2023-04-15T05:58:41.133Z,85.36
2023-04-15T06:01:09.597Z,86.06
2023-04-15T06:03:39.074Z,90.37
2023-04-15T06:06:07.780Z,87.41
2023-04-15T06:08:36.517Z,90.30
2023-04-15T06:11:05.973Z,93.76
2023-04-15T06:13:34.996Z,90.58
2023-04-15T06:16:04.319Z,86.67
2023-04-15T06:18:33.186Z,89.77
2023-04-15T06:21:01.717Z,94.31
2023-04-15T06:23:30.410Z,93.93
2023-04-15T06:25:59.348Z,93.37
2023-04-15T06:28:27.787Z,89.56
2023-04-15T06:30:56.338Z,84.11
2023-04-15T06:33:25.103Z,82.71
2023-04-15T06:35:53.685Z,82.07
2023-04-15T06:38:22.176Z,80.46
2023-04-15T06:40:51.029Z,85.30
2023-04-15T06:43:20.264Z,87.90
2023-04-15T06:45:49.317Z,87.37
2023-04-15T06:48:18.122Z,89.89
2023-04-15T06:50:46.558Z,88.28
2023-04-15T06:53:15.070Z,84.36
2023-04-15T06:55:44.251Z,83.24
2023-04-15T06:58:13.928Z,81.88
2023-04-15T07:00:42.436Z,85.65
2023-04-15T07:03:12.922Z,85.87
2023-04-15T07:05:41.523Z,84.52
2023-04-15T07:08:09.969Z,83.97
2023-04-15T07:10:38.801Z,83.30
2023-04-15T07:13:08.901Z,82.85
2023-04-15T07:15:37.379Z,83.27
2023-04-15T07:18:06.549Z,79.79
2023-04-15T07:20:35.064Z,81.43
2023-04-15T07:23:03.660Z,83.04
2023-04-15T07:25:32.366Z,81.29
2023-04-15T07:28:01.002Z,80.72
2023-04-15T07:30:29.599Z,81.17
2023-04-15T07:32:58.804Z,80.69
2023-04-15T07:35:27.618Z,78.70
2023-04-15T07:37:56.282Z,79.17
2023-04-15T07:40:25.053Z,80.53
2023-04-15T07:42:53.502Z,78.87
2023-04-15T07:45:21.952Z,78.53
2023-04-15T07:47:53.680Z,79.33
2023-04-15T07:50:22.878Z,81.35
2023-04-15T07:52:52.392Z,82.22
2023-04-15T07:55:22.934Z,83.28
2023-04-15T07:57:51.717Z,81.16
2023-04-15T08:00:20.296Z,78.87
2023-04-15T08:02:49.968Z,78.58
2023-04-15T08:05:18.753Z,79.94
2023-04-15T08:07:47.344Z,79.96
2023-04-15T08:10:34.918Z,79.61
2023-04-15T08:13:03.356Z,80.69
2023-04-15T08:15:33.049Z,82.13
2023-04-15T08:18:01.662Z,81.42
2023-04-15T08:20:30.326Z,81.20
2023-04-15T08:22:59.165Z,83.64
2023-04-15T08:25:27.643Z,81.58
2023-04-15T08:27:57.611Z,81.12
2023-04-15T08:30:26.681Z,77.66
2023-04-15T08:32:56.382Z,77.14
2023-04-15T08:35:24.922Z,78.41
2023-04-15T08:37:53.659Z,76.23
2023-04-15T08:40:22.059Z,75.97
2023-04-15T08:42:50.849Z,75.46
2023-04-15T08:45:22.770Z,76.62
2023-04-15T08:47:51.663Z,77.88
2023-04-15T08:50:20.403Z,76.46
2023-04-15T08:52:48.871Z,77.01
2023-04-15T08:55:17.330Z,76.80
2023-04-15T08:57:46.166Z,76.59
2023-04-15T09:00:14.761Z,76.29
2023-04-15T09:02:43.373Z,70.62
2023-04-15T09:05:12.293Z,73.46
2023-04-15T09:07:40.734Z,71.38
2023-04-15T09:10:09.742Z,68.85
2023-04-15T09:12:38.484Z,70.42
2023-04-15T09:15:07.783Z,67.10
2023-04-15T09:17:36.372Z,67.09
2023-04-15T09:20:09.325Z,68.89
2023-04-15T09:22:38.129Z,75.40
2023-04-15T09:25:34.827Z,77.25
2023-04-15T09:28:03.917Z,72.43
2023-04-15T09:30:32.683Z,71.25
2023-04-15T09:33:08.464Z,71.33
2023-04-15T09:35:37.564Z,72.10
2023-04-15T09:38:09.921Z,73.45
2023-04-15T09:40:42.085Z,74.61
2023-04-15T09:43:13.077Z,77.31
2023-04-15T09:45:47.358Z,76.39
2023-04-15T09:48:15.840Z,76.45
2023-04-15T09:50:44.627Z,76.04
2023-04-15T09:53:16.607Z,78.05
2023-04-15T09:55:46.223Z,81.30
2023-04-15T09:58:21.585Z,81.47
2023-04-15T10:00:51.177Z,82.59
2023-04-15T10:03:20.086Z,81.88
2023-04-15T10:05:49.913Z,81.31
2023-04-15T10:08:19.243Z,78.12
2023-04-15T10:10:48.420Z,77.05
2023-04-15T10:13:22.384Z,76.49
2023-04-15T10:15:52.309Z,77.54
2023-04-15T10:18:21.774Z,76.53
2023-04-15T10:20:50.202Z,77.45
2023-04-15T10:23:20.512Z,76.30
2023-04-15T10:25:52.463Z,78.18
2023-04-15T10:28:22.823Z,80.69
2023-04-15T10:30:52.051Z,83.71
2023-04-15T10:33:21.728Z,83.56
2023-04-15T10:35:51.724Z,84.58
2023-04-15T10:38:32.759Z,85.26
2023-04-15T10:41:17.951Z,84.02
2023-04-15T10:43:49.779Z,82.97
2023-04-15T10:46:20.772Z,83.39
2023-04-15T10:48:52.727Z,85.28
2023-04-15T10:51:31.097Z,83.97
2023-04-15T10:53:59.815Z,83.57
2023-04-15T10:56:29.113Z,84.13
2023-04-15T10:58:59.068Z,84.28
2023-04-15T11:01:48.127Z,84.97
2023-04-15T11:04:36.176Z,86.86
2023-04-15T11:07:05.708Z,86.97
2023-04-15T11:09:34.272Z,88.82
2023-04-15T11:12:06.404Z,87.67
2023-04-15T11:14:37.028Z,89.31
2023-04-15T11:17:05.520Z,87.06
2023-04-15T11:19:40.298Z,86.09
2023-04-15T11:22:09.932Z,83.91
2023-04-15T11:24:47.416Z,88.15
2023-04-15T11:27:25.298Z,86.06
2023-04-15T11:29:53.776Z,88.97
2023-04-15T11:32:22.595Z,85.59
2023-04-15T11:34:51.964Z,84.82
2023-04-15T11:37:27.724Z,86.40
2023-04-15T11:39:56.434Z,87.76
2023-04-15T11:42:24.856Z,84.93
2023-04-15T11:45:06.539Z,85.00
2023-04-15T11:47:36.730Z,84.30
2023-04-15T11:50:25.538Z,83.94
2023-04-15T11:52:56.793Z,85.17
2023-04-15T11:55:24.359Z,83.18
2023-04-15T11:58:05.612Z,81.31
2023-04-15T12:00:33.434Z,81.03
2023-04-15T12:03:22.807Z,80.63
2023-04-15T12:06:08.322Z,80.18
2023-04-15T12:08:48.541Z,79.57
2023-04-15T12:11:16.032Z,80.58
2023-04-15T12:13:50.114Z,81.30
2023-04-15T12:16:18.004Z,80.26
2023-04-15T12:18:46.244Z,80.85
2023-04-15T12:21:13.486Z,82.91
2023-04-15T12:23:47.896Z,82.01
2023-04-15T12:26:15.408Z,79.92
2023-04-15T12:28:42.563Z,77.73
2023-04-15T12:31:11.177Z,80.16
2023-04-15T12:33:39.157Z,80.90
2023-04-15T12:36:06.533Z,76.25
2023-04-15T12:38:33.805Z,78.39
2023-04-15T12:41:01.287Z,78.66
2023-04-15T12:43:28.444Z,75.98
2023-04-15T12:45:55.571Z,77.13
2023-04-15T12:48:23.080Z,76.03
2023-04-15T12:50:50.279Z,75.83
2023-04-15T12:53:17.518Z,76.32
2023-04-15T12:55:44.965Z,78.29
2023-04-15T12:58:12.196Z,79.26
2023-04-15T13:00:39.347Z,79.06
2023-04-15T13:03:08.335Z,78.57
2023-04-15T13:05:37.130Z,77.56
2023-04-15T13:08:04.317Z,75.82
2023-04-15T13:10:32.200Z,76.98
2023-04-15T13:12:59.321Z,77.73
2023-04-15T13:15:26.520Z,77.98
2023-04-15T13:17:54.024Z,78.59
2023-04-15T13:20:21.352Z,78.39
2023-04-15T13:22:48.544Z,78.63
2023-04-15T13:25:15.949Z,78.51
2023-04-15T13:27:43.108Z,77.34
2023-04-15T13:30:10.398Z,76.00
2023-04-15T13:32:37.995Z,76.25
2023-04-15T13:35:05.820Z,77.13
2023-04-15T13:37:33.161Z,75.69
2023-04-15T13:40:01.016Z,76.12
2023-04-15T13:42:28.177Z,76.83
2023-04-15T13:44:55.643Z,78.24
2023-04-15T13:47:23.148Z,77.96
2023-04-15T13:49:50.609Z,76.92
2023-04-15T13:52:17.891Z,75.17
2023-04-15T13:54:47.325Z,72.87
2023-04-15T13:57:34.650Z,72.38
2023-04-15T14:00:02.579Z,72.21
2023-04-15T14:02:33.591Z,71.69
2023-04-15T14:05:01.171Z,71.88
2023-04-15T14:07:29.226Z,72.77
2023-04-15T14:09:56.797Z,70.76
2023-04-15T14:12:24.382Z,73.23
2023-04-15T14:14:51.624Z,72.30
2023-04-15T14:17:18.846Z,72.18
2023-04-15T14:19:46.320Z,72.89
2023-04-15T14:22:13.579Z,73.30
2023-04-15T14:24:40.785Z,73.46
2023-04-15T14:27:08.874Z,73.89
2023-04-15T14:29:36.440Z,73.17
2023-04-15T14:32:11.468Z,74.04
2023-04-15T14:34:40.511Z,74.76
2023-04-15T14:37:07.690Z,73.50
2023-04-15T14:39:34.904Z,73.21
2023-04-15T14:42:03.205Z,74.42
2023-04-15T14:46:58.616Z,73.57
2023-04-15T14:49:26.403Z,73.48
2023-04-15T14:51:53.905Z,74.05
2023-04-15T14:54:22.413Z,74.14
2023-04-15T14:56:50.132Z,74.25
2023-04-15T14:59:19.137Z,75.06
2023-04-15T15:01:46.770Z,75.74
2023-04-15T15:04:14.769Z,75.17
2023-04-15T15:06:42.577Z,73.11
2023-04-15T15:09:10.044Z,73.31
2023-04-15T15:11:37.642Z,75.47
2023-04-15T15:14:04.951Z,76.39
2023-04-15T15:16:32.349Z,76.82
2023-04-15T15:19:00.081Z,76.11
2023-04-15T15:21:27.459Z,74.57
2023-04-15T15:23:54.727Z,73.37
2023-04-15T15:26:22.729Z,71.67
2023-04-15T15:28:50.969Z,71.61
2023-04-15T15:31:18.424Z,74.72
2023-04-15T15:33:46.308Z,74.71
2023-04-15T15:36:13.544Z,74.01
2023-04-15T15:38:41.239Z,75.46
2023-04-15T15:41:08.685Z,79.81
2023-04-15T15:43:35.960Z,82.25
2023-04-15T15:46:03.450Z,87.29
2023-04-15T15:48:31.348Z,89.57
2023-04-15T15:50:58.521Z,91.49
2023-04-15T15:53:26.000Z,93.63
2023-04-15T15:55:53.953Z,93.74
2023-04-15T15:58:21.374Z,92.79
2023-04-15T16:00:50.906Z,92.66
2023-04-15T16:03:18.638Z,94.77
2023-04-15T16:05:47.118Z,93.19
2023-04-15T16:08:14.485Z,92.10
2023-04-15T16:10:42.136Z,89.35
2023-04-15T16:13:10.695Z,86.92
2023-04-15T16:15:37.908Z,83.14
2023-04-15T16:18:06.007Z,81.98
2023-04-15T16:20:33.179Z,80.35
2023-04-15T16:23:00.344Z,78.23
2023-04-15T16:25:27.836Z,77.28
2023-04-15T16:28:03.433Z,78.50
2023-04-15T16:30:35.568Z,78.15
2023-04-15T16:33:03.566Z,80.97
2023-04-15T16:35:32.206Z,85.35
2023-04-15T16:38:01.695Z,88.48
2023-04-15T16:40:29.037Z,87.84
2023-04-15T16:42:56.357Z,87.35
2023-04-15T16:45:23.882Z,86.45
2023-04-15T16:47:51.612Z,85.67
2023-04-15T16:50:19.306Z,86.63
2023-04-15T16:52:47.073Z,84.93
2023-04-15T16:55:14.875Z,84.99
2023-04-15T16:58:02.349Z,85.69
2023-04-15T17:00:30.002Z,86.51
2023-04-15T17:02:57.788Z,86.91
2023-04-15T17:05:27.394Z,82.75
2023-04-15T17:07:55.549Z,79.10
2023-04-15T17:10:22.837Z,77.60
2023-04-15T17:12:52.212Z,76.57
2023-04-15T17:15:20.402Z,76.39
2023-04-15T17:17:52.160Z,75.87
2023-04-15T17:20:19.905Z,75.10
2023-04-15T17:22:47.946Z,74.48
2023-04-15T17:25:15.620Z,73.84
2023-04-15T17:27:47.360Z,73.74
2023-04-15T17:30:19.015Z,74.14
2023-04-15T17:33:55.303Z,73.95
2023-04-15T17:36:17.669Z,73.34
2023-04-15T17:39:07.025Z,73.03
2023-04-15T17:41:55.151Z,72.26
2023-04-15T17:44:43.070Z,72.20
2023-04-15T17:47:31.139Z,71.81
2023-04-15T17:50:19.283Z,71.47
2023-04-15T17:53:06.921Z,76.42
2023-04-15T17:55:54.848Z,76.92
2023-04-15T17:58:43.624Z,77.96
2023-04-15T18:01:31.585Z,77.77
2023-04-15T18:04:19.121Z,72.63
2023-04-15T18:07:06.278Z,73.19
2023-04-15T18:09:56.303Z,73.06
2023-04-15T18:12:44.003Z,72.86
2023-04-15T18:15:32.440Z,73.63
2023-04-15T18:18:20.321Z,75.63
2023-04-15T18:21:02.287Z,77.61
2023-04-15T18:23:29.962Z,79.90
2023-04-15T18:25:58.641Z,84.33
2023-04-15T18:28:27.086Z,89.05
2023-04-15T18:30:54.324Z,91.51
2023-04-15T18:33:23.200Z,92.87
2023-04-15T18:35:51.118Z,94.19
2023-04-15T18:38:20.142Z,91.64
2023-04-15T18:40:48.976Z,90.68
2023-04-15T18:43:18.401Z,87.09
2023-04-15T18:45:46.746Z,83.63
2023-04-15T18:48:16.416Z,82.76
2023-04-15T18:50:44.686Z,81.65
2023-04-15T18:53:12.882Z,84.64
2023-04-15T18:58:23.046Z,90.35
2023-04-15T19:00:52.395Z,92.76
2023-04-15T19:03:20.444Z,95.08
2023-04-15T19:05:48.484Z,94.97
2023-04-15T19:08:16.387Z,94.76
2023-04-15T19:10:45.091Z,93.97
2023-04-15T19:13:13.418Z,92.55
2023-04-15T19:15:41.038Z,89.66
2023-04-15T19:18:11.040Z,88.71
2023-04-15T19:20:39.998Z,87.58
2023-04-15T19:23:08.430Z,86.22
2023-04-15T19:25:38.603Z,84.08
2023-04-15T19:28:06.434Z,83.50
2023-04-15T19:30:35.375Z,82.83
2023-04-15T19:33:06.293Z,83.12
2023-04-15T19:35:33.807Z,84.39
2023-04-15T19:38:01.036Z,87.17
2023-04-15T19:40:28.609Z,91.15
2023-04-15T19:42:56.645Z,95.00
2023-04-15T19:45:24.481Z,95.60
2023-04-15T19:47:53.688Z,94.64
2023-04-15T19:50:25.937Z,92.59
2023-04-15T19:52:53.953Z,93.62
2023-04-15T19:55:22.340Z,96.26
2023-04-15T19:57:50.186Z,96.50
2023-04-15T20:00:18.119Z,95.11
2023-04-15T20:02:46.522Z,93.41
2023-04-15T20:05:15.336Z,89.30
2023-04-15T20:07:43.632Z,83.20
2023-04-15T20:10:13.192Z,79.41
2023-04-15T20:12:51.403Z,78.17
2023-04-15T20:15:21.369Z,77.96
2023-04-15T20:17:49.612Z,76.69
2023-04-15T20:20:17.610Z,76.80
2023-04-15T20:22:45.819Z,77.34
2023-04-15T20:25:14.101Z,76.51
2023-04-15T20:27:42.307Z,76.83
2023-04-15T20:30:12.479Z,84.03
2023-04-15T20:32:41.116Z,86.86
2023-04-15T20:35:10.859Z,87.95
2023-04-15T20:37:38.536Z,88.80
2023-04-15T20:40:08.071Z,90.45
2023-04-15T20:42:36.029Z,90.61
2023-04-15T20:45:03.671Z,90.19
2023-04-15T20:47:31.380Z,92.20
2023-04-15T20:49:59.151Z,92.91
2023-04-15T20:52:26.600Z,91.94
2023-04-15T20:54:54.807Z,91.44
2023-04-15T20:57:24.617Z,89.84
2023-04-15T20:59:52.059Z,90.41
2023-04-15T21:02:20.134Z,89.61
2023-04-15T21:04:48.325Z,89.03
2023-04-15T21:07:15.903Z,90.27
2023-04-15T21:09:43.825Z,90.57
2023-04-15T21:12:11.730Z,91.42
2023-04-15T21:14:39.590Z,92.92
2023-04-15T21:17:10.034Z,93.03
2023-04-15T21:19:38.399Z,93.28
2023-04-15T21:22:05.669Z,94.50
2023-04-15T21:24:33.070Z,95.08
2023-04-15T21:27:02.033Z,95.26
2023-04-15T21:29:29.375Z,97.22
2023-04-15T21:31:56.640Z,97.89
2023-04-15T21:34:24.137Z,97.42
2023-04-15T21:36:51.306Z,97.55
2023-04-15T21:39:18.504Z,97.65
2023-04-15T21:41:46.111Z,97.29
2023-04-15T21:44:14.828Z,98.45
2023-04-15T21:46:46.040Z,100.00
2023-04-15T21:49:13.845Z,100.00
2023-04-15T21:51:41.068Z,100.00
2023-04-15T21:54:08.353Z,100.00
2023-04-15T21:56:38.035Z,100.00
2023-04-15T21:59:07.380Z,99.28
2023-04-15T22:01:34.742Z,97.86
2023-04-15T22:04:02.414Z,96.95
2023-04-15T22:06:29.597Z,95.22
2023-04-15T22:08:57.739Z,94.72
2023-04-15T22:11:30.638Z,93.07
2023-04-15T22:13:58.342Z,89.01
2023-04-15T22:16:26.374Z,86.02
2023-04-15T22:18:54.226Z,86.54
2023-04-15T22:21:21.493Z,90.41
2023-04-15T22:23:49.227Z,91.31
2023-04-15T22:26:16.386Z,91.46
2023-04-15T22:28:43.552Z,91.13
2023-04-15T22:31:11.384Z,85.38
2023-04-15T22:33:38.967Z,81.68
2023-04-15T22:36:06.355Z,80.51
2023-04-15T22:38:33.803Z,78.86
2023-04-15T22:41:01.307Z,77.73
2023-04-15T22:43:28.616Z,78.30
2023-04-15T22:45:56.739Z,78.03
2023-04-15T22:48:24.039Z,79.27
2023-04-15T22:50:51.590Z,80.39
2023-04-15T22:53:19.153Z,83.37
2023-04-15T22:55:46.880Z,84.20
2023-04-15T22:58:14.427Z,88.45
2023-04-15T23:00:41.876Z,86.62
2023-04-15T23:03:09.259Z,87.80
2023-04-15T23:05:37.004Z,89.09
2023-04-15T23:08:04.428Z,89.71
2023-04-15T23:10:32.818Z,89.30
2023-04-15T23:12:59.983Z,84.05
2023-04-15T23:15:27.427Z,87.95
2023-04-15T23:17:54.601Z,89.69
2023-04-15T23:20:22.425Z,89.93
2023-04-15T23:22:49.899Z,90.73
2023-04-15T23:25:17.071Z,91.32
2023-04-15T23:27:44.300Z,92.08
2023-04-15T23:30:11.757Z,92.75
2023-04-15T23:32:39.157Z,92.05
2023-04-15T23:35:06.616Z,93.03
2023-04-15T23:37:34.137Z,93.16
2023-04-15T23:40:01.296Z,93.82
2023-04-15T23:42:28.455Z,93.06
2023-04-15T23:44:55.934Z,90.49
2023-04-15T23:47:23.132Z,89.22
2023-04-15T23:49:50.560Z,88.68
2023-04-15T23:52:17.994Z,89.73
2023-04-15T23:54:45.318Z,90.80
2023-04-15T23:57:13.250Z,93.09
2023-04-15T23:59:40.716Z,95.07
